createdAt,value
2023-01-08T00:02:19.006Z,9.64
2023-01-08T00:05:20.986Z,9.84
2023-01-08T00:08:22.701Z,9.77
2023-01-08T00:11:25.963Z,9.83
2023-01-08T00:14:27.728Z,9.73
2023-01-08T00:17:29.548Z,9.72
2023-01-08T00:20:31.286Z,9.78
2023-01-08T00:23:34.063Z,9.76
2023-01-08T00:26:37.228Z,9.76
2023-01-08T00:29:38.982Z,9.76
2023-01-08T00:32:40.735Z,9.79
2023-01-08T00:35:42.778Z,9.83
2023-01-08T00:38:45.875Z,9.89
2023-01-08T00:41:49.667Z,9.88
2023-01-08T00:44:51.663Z,9.88
2023-01-08T00:47:53.556Z,9.90
2023-01-08T00:50:55.308Z,9.87
2023-01-08T00:53:57.019Z,10.02
2023-01-08T00:57:00.104Z,10.03
2023-01-08T01:00:02.288Z,10.07
2023-01-08T01:03:04.263Z,10.20
2023-01-08T01:06:07.311Z,10.27
2023-01-08T01:09:09.465Z,10.23
2023-01-08T01:12:12.603Z,10.17
2023-01-08T01:15:17.318Z,10.06
2023-01-08T01:18:19.015Z,10.02
2023-01-08T01:21:23.950Z,9.90
2023-01-08T01:24:25.494Z,9.75
2023-01-08T01:27:28.514Z,9.71
2023-01-08T01:30:30.265Z,9.58
2023-01-08T01:33:31.928Z,9.49
2023-01-08T01:36:33.614Z,9.44
2023-01-08T01:39:35.300Z,9.43
2023-01-08T01:42:41.307Z,9.37
2023-01-08T01:45:43.654Z,9.31
2023-01-08T01:48:46.906Z,9.26
2023-01-08T01:51:52.423Z,9.24
2023-01-08T01:54:54.997Z,9.20
2023-01-08T01:58:04.759Z,9.15
2023-01-08T02:01:08.708Z,9.08
2023-01-08T02:04:11.955Z,9.04
2023-01-08T02:07:20.371Z,9.05
2023-01-08T02:10:29.708Z,8.98
2023-01-08T02:13:37.654Z,8.95
2023-01-08T02:16:44.603Z,8.87
2023-01-08T02:19:50.893Z,9.00
2023-01-08T02:23:07.267Z,9.05
2023-01-08T02:26:17.192Z,9.10
2023-01-08T02:29:22.296Z,9.23
2023-01-08T02:32:26.676Z,9.22
2023-01-08T02:35:37.061Z,9.18
2023-01-08T02:38:47.348Z,9.29
2023-01-08T02:42:05.630Z,9.33
2023-01-08T02:45:20.193Z,9.19
2023-01-08T02:48:29.978Z,9.13
2023-01-08T02:51:40.015Z,9.23
2023-01-08T02:54:43.847Z,9.12
2023-01-08T02:57:47.449Z,9.16
2023-01-08T03:00:50.647Z,9.08
2023-01-08T03:03:56.033Z,9.00
2023-01-08T03:06:57.776Z,9.04
2023-01-08T03:09:59.716Z,8.99
2023-01-08T03:13:06.337Z,8.99
2023-01-08T03:16:12.057Z,9.01
2023-01-08T03:19:19.698Z,8.99
2023-01-08T03:22:23.374Z,9.06
2023-01-08T03:25:28.446Z,9.04
2023-01-08T03:28:36.964Z,8.96
2023-01-08T03:31:40.586Z,8.85
2023-01-08T03:34:45.521Z,8.79
2023-01-08T03:37:54.423Z,8.86
2023-01-08T03:41:00.048Z,8.81
2023-01-08T03:44:04.416Z,8.78
2023-01-08T03:47:10.229Z,8.93
2023-01-08T03:50:22.885Z,9.15
2023-01-08T03:53:24.583Z,9.13
2023-01-08T03:56:26.191Z,9.15
2023-01-08T03:59:29.323Z,9.12
2023-01-08T04:02:31.137Z,9.13
2023-01-08T04:05:33.158Z,9.12
2023-01-08T04:08:34.904Z,9.09
2023-01-08T04:11:36.645Z,9.02
2023-01-08T04:14:39.934Z,9.05
2023-01-08T04:17:41.632Z,9.12
2023-01-08T04:20:45.499Z,9.16
2023-01-08T04:23:47.639Z,9.05
2023-01-08T04:26:49.267Z,9.03
2023-01-08T04:29:52.282Z,8.90
2023-01-08T04:32:53.964Z,8.89
2023-01-08T04:35:55.571Z,8.81
2023-01-08T04:38:57.193Z,8.85
2023-01-08T04:41:58.843Z,8.85
2023-01-08T04:45:01.840Z,8.88
2023-01-08T04:48:03.502Z,8.90
2023-01-08T04:51:05.584Z,8.84
2023-01-08T04:54:07.246Z,8.78
2023-01-08T04:57:08.902Z,8.73
2023-01-08T05:00:13.513Z,8.68
2023-01-08T05:03:15.221Z,8.64
2023-01-08T05:06:16.987Z,8.63
2023-01-08T05:09:18.578Z,8.55
2023-01-08T05:12:20.385Z,8.52
2023-01-08T05:15:23.334Z,8.44
2023-01-08T05:18:24.923Z,8.39
2023-01-08T05:21:26.600Z,8.35
2023-01-08T05:24:28.213Z,8.30
2023-01-08T05:27:29.789Z,8.28
2023-01-08T05:30:32.784Z,8.26
2023-01-08T05:33:34.476Z,8.25
2023-01-08T05:36:36.102Z,8.21
2023-01-08T05:39:38.217Z,8.24
2023-01-08T05:42:40.015Z,8.19
2023-01-08T05:45:43.146Z,8.24
2023-01-08T05:48:44.826Z,8.21
2023-01-08T05:51:46.482Z,8.17
2023-01-08T05:54:48.136Z,8.20
2023-01-08T05:57:50.151Z,8.21
2023-01-08T06:00:53.515Z,8.19
2023-01-08T06:03:55.843Z,8.17
2023-01-08T06:06:57.487Z,8.19
2023-01-08T06:09:59.154Z,8.17
2023-01-08T06:13:00.860Z,8.16
2023-01-08T06:16:04.422Z,8.11
2023-01-08T06:19:06.178Z,8.13
2023-01-08T06:22:07.834Z,8.08
2023-01-08T06:25:09.883Z,8.04
2023-01-08T06:28:11.631Z,8.05
2023-01-08T06:31:14.664Z,8.06
2023-01-08T06:34:16.421Z,8.08
2023-01-08T06:37:18.004Z,8.13
2023-01-08T06:40:19.744Z,8.18
2023-01-08T06:43:23.987Z,8.21
2023-01-08T06:46:27.364Z,8.15
2023-01-08T06:49:29.039Z,8.16
2023-01-08T06:52:30.727Z,8.21
2023-01-08T06:55:32.417Z,8.22
2023-01-08T06:58:34.136Z,8.19
2023-01-08T07:01:37.218Z,8.24
2023-01-08T07:04:38.902Z,8.23
2023-01-08T07:07:40.523Z,8.22
2023-01-08T07:10:42.269Z,8.21
2023-01-08T07:13:43.902Z,8.25
2023-01-08T07:16:46.915Z,8.25
2023-01-08T07:19:48.617Z,8.29
2023-01-08T07:22:50.291Z,8.34
2023-01-08T07:25:51.947Z,8.32
2023-01-08T07:28:53.633Z,8.28
2023-01-08T07:31:56.677Z,8.24
2023-01-08T07:34:59.166Z,8.21
2023-01-08T07:38:00.950Z,8.19
2023-01-08T07:41:02.671Z,8.19
2023-01-08T07:44:04.549Z,8.17
2023-01-08T07:47:07.627Z,8.13
2023-01-08T07:50:09.792Z,8.16
2023-01-08T07:53:13.601Z,8.17
2023-01-08T07:56:15.343Z,8.14
2023-01-08T07:59:17.025Z,8.13
2023-01-08T08:02:20.211Z,8.12
2023-01-08T08:05:22.016Z,8.13
2023-01-08T08:08:23.715Z,8.14
2023-01-08T08:11:25.381Z,8.16
2023-01-08T08:14:27.079Z,8.17
2023-01-08T08:17:30.136Z,8.17
2023-01-08T08:20:32.472Z,8.13
2023-01-08T08:23:36.457Z,8.13
2023-01-08T08:26:38.416Z,8.15
2023-01-08T08:29:40.075Z,8.17
2023-01-08T08:32:43.137Z,8.17
2023-01-08T08:35:50.152Z,8.19
2023-01-08T08:38:51.846Z,8.24
2023-01-08T08:41:53.559Z,8.23
2023-01-08T08:44:55.277Z,8.23
2023-01-08T08:47:58.428Z,8.22
2023-01-08T08:51:00.103Z,8.22
2023-01-08T08:54:01.815Z,8.20
2023-01-08T08:57:03.604Z,8.23
2023-01-08T09:00:06.506Z,8.26
2023-01-08T09:03:12.751Z,8.25
2023-01-08T09:06:15.062Z,8.26
2023-01-08T09:09:16.809Z,8.27
2023-01-08T09:12:18.730Z,8.30
2023-01-08T09:15:20.451Z,8.34
2023-01-08T09:18:23.473Z,8.35
2023-01-08T09:21:25.132Z,8.34
2023-01-08T09:24:26.776Z,8.33
2023-01-08T09:27:28.648Z,8.36
2023-01-08T09:30:30.860Z,8.39
2023-01-08T09:33:34.291Z,8.42
2023-01-08T09:36:36.033Z,8.48
2023-01-08T09:39:37.677Z,8.53
2023-01-08T09:42:39.627Z,8.58
2023-01-08T09:45:43.461Z,8.58
2023-01-08T09:48:46.617Z,8.63
2023-01-08T09:51:48.473Z,8.65
2023-01-08T09:54:50.147Z,8.68
2023-01-08T09:57:51.980Z,8.67
2023-01-08T10:00:54.838Z,8.73
2023-01-08T10:04:04.427Z,8.66
2023-01-08T10:07:14.289Z,8.68
2023-01-08T10:10:19.589Z,8.68
2023-01-08T10:13:21.269Z,8.66
2023-01-08T10:16:28.914Z,8.69
2023-01-08T10:19:32.048Z,8.73
2023-01-08T10:22:34.265Z,8.73
2023-01-08T10:25:48.774Z,8.73
2023-01-08T10:28:50.465Z,8.78
2023-01-08T10:31:54.890Z,8.77
2023-01-08T10:34:59.084Z,8.80
2023-01-08T10:38:01.792Z,8.80
2023-01-08T10:41:05.778Z,8.86
2023-01-08T10:44:16.395Z,8.88
2023-01-08T10:47:19.106Z,8.89
2023-01-08T10:50:24.575Z,8.88
2023-01-08T10:53:29.081Z,8.91
2023-01-08T10:56:40.463Z,8.97
2023-01-08T10:59:42.463Z,9.12
2023-01-08T11:02:50.353Z,9.21
2023-01-08T11:05:53.374Z,9.24
2023-01-08T11:08:57.833Z,9.26
2023-01-08T11:12:00.559Z,9.37
2023-01-08T11:15:03.436Z,9.45
2023-01-08T11:18:20.162Z,9.43
2023-01-08T11:21:26.355Z,9.43
2023-01-08T11:24:30.710Z,9.44
2023-01-08T11:27:36.972Z,9.61
2023-01-08T11:30:39.488Z,9.80
2023-01-08T11:33:44.606Z,9.82
2023-01-08T11:36:52.949Z,9.94
2023-01-08T11:39:55.610Z,10.02
2023-01-08T11:43:17.580Z,10.13
2023-01-08T11:46:33.560Z,9.93
2023-01-08T11:49:55.137Z,9.94
2023-01-08T11:53:13.040Z,9.92
2023-01-08T11:56:25.535Z,10.07
2023-01-08T11:59:39.751Z,10.20
2023-01-08T12:02:54.106Z,10.13
2023-01-08T12:06:04.873Z,9.93
2023-01-08T12:09:16.782Z,9.91
2023-01-08T12:12:29.459Z,9.98
2023-01-08T12:15:40.907Z,10.03
2023-01-08T12:18:57.191Z,9.94
2023-01-08T12:22:12.788Z,9.95
2023-01-08T12:25:41.492Z,9.95
2023-01-08T12:29:02.833Z,10.02
2023-01-08T12:32:36.346Z,10.09
2023-01-08T12:35:40.752Z,10.16
2023-01-08T12:38:44.845Z,10.13
2023-01-08T13:02:07.286Z,10.20
2023-01-08T13:05:14.149Z,10.18
2023-01-08T13:08:27.671Z,10.22
2023-01-08T13:11:31.754Z,10.18
2023-01-08T13:14:41.412Z,10.11
2023-01-08T13:17:48.166Z,10.10
2023-01-08T13:20:56.665Z,10.09
2023-01-08T13:24:05.277Z,10.05
2023-01-08T13:27:12.177Z,10.02
2023-01-08T13:30:39.453Z,10.01
2023-01-08T13:37:28.062Z,9.93
2023-01-08T13:40:51.877Z,9.95
2023-01-08T13:44:00.399Z,10.00
2023-01-08T13:47:04.403Z,10.01
2023-01-08T13:50:18.190Z,10.04
2023-01-08T13:53:21.053Z,10.04
2023-01-08T13:56:24.109Z,10.10
2023-01-08T13:59:36.980Z,10.21
2023-01-08T14:02:55.271Z,10.25
2023-01-08T14:06:06.687Z,10.23
2023-01-08T14:09:20.455Z,10.15
2023-01-08T14:12:24.956Z,10.07
2023-01-08T14:15:28.502Z,10.02
2023-01-08T14:18:30.174Z,9.88
2023-01-08T14:21:32.246Z,9.88
2023-01-08T14:24:33.950Z,9.86
2023-01-08T14:27:36.936Z,9.87
2023-01-08T14:30:47.750Z,9.90
2023-01-08T14:33:53.313Z,9.91
2023-01-08T14:36:56.055Z,9.95
2023-01-08T14:39:57.706Z,9.92
2023-01-08T14:43:06.500Z,9.95
2023-01-08T14:46:18.530Z,9.96
2023-01-08T14:49:24.232Z,9.96
2023-01-08T14:52:26.271Z,9.95
2023-01-08T14:55:29.345Z,9.99
2023-01-08T14:58:36.827Z,10.06
2023-01-08T15:01:39.106Z,10.17
2023-01-08T15:04:40.832Z,10.20
2023-01-08T15:07:45.007Z,10.24
2023-01-08T15:10:57.950Z,10.22
2023-01-08T15:14:12.103Z,10.14
2023-01-08T15:17:18.423Z,10.10
2023-01-08T15:20:23.404Z,10.07
2023-01-08T15:23:28.462Z,10.02
2023-01-08T15:26:30.721Z,9.97
2023-01-08T15:29:33.821Z,9.94
2023-01-08T15:32:37.419Z,9.90
2023-01-08T15:35:39.123Z,9.85
2023-01-08T15:38:42.998Z,9.83
2023-01-08T15:42:03.411Z,9.84
2023-01-08T15:45:12.390Z,9.79
2023-01-08T15:48:14.548Z,9.76
2023-01-08T15:51:16.212Z,9.78
2023-01-08T15:54:21.223Z,9.79
2023-01-08T15:57:23.017Z,9.72
2023-01-08T16:02:03.294Z,9.67
2023-01-08T16:05:05.772Z,9.67
2023-01-08T16:08:07.670Z,9.67
2023-01-08T16:11:09.434Z,9.67
2023-01-08T16:14:11.194Z,9.67
2023-01-08T16:17:14.329Z,9.66
2023-01-08T16:20:17.041Z,9.70
2023-01-08T16:23:19.082Z,9.65
2023-01-08T16:26:21.236Z,9.67
2023-01-08T16:29:23.087Z,9.65
2023-01-08T16:32:26.310Z,9.65
2023-01-08T16:35:28.061Z,9.63
2023-01-08T16:38:31.663Z,9.63
2023-01-08T16:41:35.234Z,9.69
2023-01-08T16:44:37.268Z,9.72
2023-01-08T16:47:40.436Z,9.72
2023-01-08T16:50:43.165Z,9.71
2023-01-08T16:53:44.750Z,9.68
2023-01-08T16:56:46.363Z,9.71
2023-01-08T16:59:47.941Z,9.69
2023-01-08T17:02:50.890Z,9.68
2023-01-08T17:05:52.504Z,9.67
2023-01-08T17:08:54.080Z,9.68
2023-01-08T17:11:55.848Z,9.62
2023-01-08T17:14:57.597Z,9.55
2023-01-08T17:18:00.477Z,9.53
2023-01-08T17:21:02.597Z,9.54
2023-01-08T17:24:05.027Z,9.54
2023-01-08T17:27:06.698Z,9.44
2023-01-08T17:30:09.735Z,9.45
2023-01-08T17:33:14.669Z,9.46
2023-01-08T17:36:18.141Z,9.45
2023-01-08T17:39:19.684Z,9.52
2023-01-08T17:42:24.508Z,9.48
2023-01-08T17:45:26.130Z,9.43
2023-01-08T17:48:29.141Z,9.33
2023-01-08T17:51:32.288Z,9.23
2023-01-08T17:54:34.159Z,9.12
2023-01-08T17:57:35.761Z,9.06
2023-01-08T18:00:37.428Z,8.98
2023-01-08T18:03:40.430Z,8.76
2023-01-08T18:06:42.644Z,8.87
2023-01-08T18:09:44.959Z,8.99
2023-01-08T18:12:46.592Z,9.05
2023-01-08T18:15:48.473Z,9.01
2023-01-08T18:18:52.065Z,9.09
2023-01-08T18:21:53.624Z,9.07
2023-01-08T18:24:55.239Z,8.88
2023-01-08T18:27:56.758Z,9.05
2023-01-08T18:30:58.385Z,8.92
2023-01-08T18:34:03.596Z,9.03
2023-01-08T18:37:05.245Z,8.80
2023-01-08T18:40:07.729Z,8.85
2023-01-08T18:43:09.683Z,8.79
2023-01-08T18:46:11.393Z,8.72
2023-01-08T18:49:14.572Z,8.93
2023-01-08T18:52:16.410Z,8.94
2023-01-08T18:55:18.219Z,8.87
2023-01-08T18:58:19.766Z,8.93
2023-01-08T19:01:21.805Z,9.00
2023-01-08T19:04:24.770Z,9.28
2023-01-08T19:07:26.854Z,9.34
2023-01-08T19:10:28.442Z,9.32
2023-01-08T19:13:30.084Z,9.29
2023-01-08T19:16:31.861Z,9.22
2023-01-08T19:19:35.027Z,9.22
2023-01-08T19:22:36.659Z,9.26
2023-01-08T19:25:38.625Z,9.20
2023-01-08T19:28:40.763Z,9.24
2023-01-08T19:31:42.426Z,9.31
2023-01-08T19:34:45.519Z,9.09
2023-01-08T19:37:47.222Z,9.12
2023-01-08T19:40:48.846Z,9.19
2023-01-08T19:43:50.442Z,9.17
2023-01-08T19:46:52.161Z,9.23
2023-01-08T19:49:55.143Z,9.33
2023-01-08T19:52:56.783Z,9.28
2023-01-08T19:56:02.480Z,9.46
2023-01-08T19:59:04.056Z,9.52
2023-01-08T20:02:05.752Z,9.45
2023-01-08T20:05:09.820Z,9.47
2023-01-08T20:08:11.377Z,9.32
2023-01-08T20:11:15.363Z,9.32
2023-01-08T20:14:17.266Z,9.32
2023-01-08T20:17:21.509Z,9.33
2023-01-08T20:20:24.511Z,9.21
2023-01-08T20:23:26.076Z,9.34
2023-01-08T20:26:30.224Z,9.43
2023-01-08T20:29:32.822Z,9.37
2023-01-08T20:32:34.509Z,9.28
2023-01-08T20:35:37.692Z,9.35
2023-01-08T20:38:39.602Z,9.24
2023-01-08T20:41:46.714Z,9.26
2023-01-08T20:44:57.291Z,9.22
2023-01-08T20:47:58.903Z,9.43
2023-01-08T20:51:04.275Z,9.32
2023-01-08T20:54:08.368Z,9.35
2023-01-08T20:57:10.038Z,9.25
2023-01-08T21:00:12.683Z,9.14
2023-01-08T21:03:14.640Z,9.17
2023-01-08T21:06:19.368Z,9.25
2023-01-08T21:09:21.089Z,9.47
2023-01-08T21:12:22.761Z,9.43
2023-01-08T21:15:24.711Z,9.29
2023-01-08T21:18:27.173Z,9.33
2023-01-08T21:21:32.923Z,9.29
2023-01-08T21:24:34.605Z,9.25
2023-01-08T21:27:36.311Z,9.27
2023-01-08T21:30:37.959Z,9.38
2023-01-08T21:33:40.381Z,9.44
2023-01-08T21:36:43.365Z,9.47
2023-01-08T21:39:44.987Z,9.59
2023-01-08T21:43:05.509Z,9.51
2023-01-08T21:46:07.211Z,9.50
2023-01-08T21:49:08.821Z,9.51
2023-01-08T21:52:30.687Z,9.45
2023-01-08T21:55:33.586Z,9.50
2023-01-08T21:58:35.559Z,9.35
2023-01-08T22:01:37.241Z,9.26
2023-01-08T22:04:38.869Z,9.27
2023-01-08T22:07:41.831Z,9.26
2023-01-08T22:10:43.749Z,9.27
2023-01-08T22:13:45.396Z,9.30
2023-01-08T22:16:47.158Z,9.22
2023-01-08T22:19:48.788Z,9.18
2023-01-08T22:27:56.146Z,9.13
2023-01-08T22:30:57.853Z,9.05
2023-01-08T22:33:59.857Z,9.09
2023-01-08T22:37:02.043Z,9.04
2023-01-08T22:40:04.776Z,9.00
2023-01-08T22:43:07.910Z,8.94
2023-01-08T22:46:12.405Z,9.02
2023-01-08T22:49:14.426Z,9.00
2023-01-08T22:52:16.206Z,9.12
2023-01-08T22:55:18.212Z,9.26
2023-01-08T22:58:21.304Z,9.23
2023-01-08T23:01:24.755Z,9.18
2023-01-08T23:04:26.699Z,9.16
2023-01-08T23:07:28.590Z,9.01
2023-01-08T23:13:48.088Z,8.98
2023-01-08T23:16:49.878Z,8.96
2023-01-08T23:19:51.611Z,8.99
2023-01-08T23:22:53.608Z,8.97
2023-01-08T23:25:55.467Z,8.97
2023-01-08T23:29:00.563Z,8.88
2023-01-08T23:32:02.257Z,8.96
2023-01-08T23:35:04.629Z,8.94
2023-01-08T23:38:06.293Z,8.82
2023-01-08T23:41:07.976Z,8.78
2023-01-08T23:44:14.226Z,8.72
2023-01-08T23:47:16.124Z,8.73
2023-01-08T23:50:17.893Z,8.66
2023-01-08T23:53:19.767Z,8.66
2023-01-08T23:56:27.239Z,8.59
2023-01-08T23:59:30.265Z,8.51
